This is the latest recevied weather packets stored in our database for station/object N5GAH-13. If no packets are shown the sender has not sent any weather packets the latest 10 day(s).
| Time | Temp. | Humidity | Pressure | Rain* | Wind** | Luminosity | Snow |
|---|---|---|---|---|---|---|---|
| 1777969410 | 20.56° C | 36% | 1012 hPa | 0 mm | - | - | - |
| 1777967610 | 20.56° C | 36% | 1011.7 hPa | 0 mm | - | - | - |
| 1777965810 | 20° C | 39% | 1011.9 hPa | 0 mm | - | - | - |
| 1777964011 | 20.56° C | 38% | 1012.5 hPa | 0 mm | - | - | - |
| 1777962210 | 21.11° C | 36% | 1012.5 hPa | 0 mm | - | - | - |
| 1777958610 | 21.67° C | 33% | 1012.7 hPa | 0 mm | - | - | - |
| 1777953211 | 22.78° C | 29% | 1012.7 hPa | 0 mm | - | - | - |
| 1777949610 | 24.44° C | 25% | 1012.4 hPa | 0 mm | - | - | - |
| 1777947810 | 25° C | 23% | 1012.2 hPa | 0 mm | - | - | - |
| 1777940610 | 28.33° C | 16% | 1012 hPa | 0 mm | - | - | - |
| 1777938810 | 28.89° C | 16% | 1012.1 hPa | 0 mm | - | - | - |
| 1777937011 | 29.44° C | 18% | 1012 hPa | 0 mm | - | - | - |
| 1777935211 | 29.44° C | 20% | 1012.4 hPa | 0 mm | - | - | - |
| 1777933410 | 29.44° C | 22% | 1012.6 hPa | 0 mm | - | - | - |
| 1777931610 | 28.89° C | 23% | 1013 hPa | 0 mm | - | - | - |
| 1777929810 | 27.78° C | 27% | 1013.5 hPa | 0 mm | - | - | - |
| 1777928010 | 28.33° C | 26% | 1014 hPa | 0 mm | - | - | - |
| 1777924410 | 28.33° C | 26% | 1014.7 hPa | 0 mm | - | - | - |
| 1777919010 | 30° C | 30% | 1015.2 hPa | 0 mm | - | - | - |
| 1777915410 | 30° C | 33% | 1016 hPa | 0 mm | - | - | - |
| 1777913610 | 28.89° C | 36% | 1016.2 hPa | 0 mm | - | - | - |
| 1777911810 | 27.22° C | 40% | 1016.1 hPa | 0 mm | - | - | - |
| 1777910009 | 25° C | 48% | 1016.6 hPa | 0 mm | - | - | - |
| 1777908210 | 22.22° C | 55% | 1016.9 hPa | 0 mm | - | - | - |
| 1777906409 | 20° C | 62% | 1017 hPa | 0 mm | - | - | - |
* Rain latest hour (hover to see other rain measurements)
** Current wind speed in m/s (hover to see current wind gust speed)